createdAt,value
2017-04-29T00:01:36.088Z,78.80
2017-04-29T00:04:03.120Z,79.50
2017-04-29T00:06:30.142Z,80.10
2017-04-29T00:08:57.933Z,80.80
2017-04-29T00:11:25.000Z,81.50
2017-04-29T00:13:52.406Z,81.70
2017-04-29T00:16:19.448Z,81.90
2017-04-29T00:18:46.533Z,81.70
2017-04-29T00:21:13.561Z,81.20
2017-04-29T00:23:41.417Z,80.80
2017-04-29T00:26:08.501Z,81.00
2017-04-29T00:28:35.524Z,82.60
2017-04-29T00:31:03.572Z,82.70
2017-04-29T00:33:30.588Z,82.50
2017-04-29T00:35:57.621Z,82.60
2017-04-29T00:38:24.680Z,82.70
2017-04-29T00:40:51.689Z,82.60
2017-04-29T00:43:18.749Z,84.00
2017-04-29T00:45:46.518Z,83.70
2017-04-29T00:48:13.945Z,84.00
2017-04-29T00:50:41.713Z,84.00
2017-04-29T00:53:09.491Z,83.80
2017-04-29T00:55:37.259Z,83.50
2017-04-29T00:58:05.064Z,82.60
2017-04-29T01:00:32.464Z,82.70
2017-04-29T01:02:59.577Z,81.90
2017-04-29T01:05:26.572Z,81.90
2017-04-29T01:07:54.011Z,81.80
2017-04-29T01:10:21.077Z,81.60
2017-04-29T01:12:48.901Z,81.40
2017-04-29T01:15:15.951Z,80.90
2017-04-29T01:17:43.435Z,80.40
2017-04-29T01:20:10.510Z,81.00
2017-04-29T01:22:37.554Z,81.20
2017-04-29T01:25:05.349Z,81.30
2017-04-29T01:27:32.399Z,80.80
2017-04-29T01:29:59.436Z,80.60
2017-04-29T01:32:26.482Z,79.80
2017-04-29T01:34:53.509Z,79.70
2017-04-29T01:37:20.543Z,80.00
2017-04-29T01:39:48.297Z,79.10
2017-04-29T01:42:15.641Z,78.70
2017-04-29T01:44:42.688Z,78.70
2017-04-29T01:47:09.745Z,78.70
2017-04-29T01:49:36.780Z,78.60
2017-04-29T01:52:03.865Z,78.60
2017-04-29T01:54:30.908Z,77.90
2017-04-29T01:56:58.701Z,78.00
2017-04-29T01:59:26.104Z,77.50
2017-04-29T02:01:53.130Z,77.70
2017-04-29T02:04:20.216Z,77.60
2017-04-29T02:06:47.642Z,77.80
2017-04-29T02:09:14.688Z,78.10
2017-04-29T02:11:41.748Z,77.90
2017-04-29T02:14:08.799Z,77.50
2017-04-29T02:16:36.167Z,77.70
2017-04-29T02:19:03.219Z,77.80
2017-04-29T02:21:30.268Z,78.20
2017-04-29T02:23:57.284Z,78.10
2017-04-29T02:26:24.306Z,79.30
2017-04-29T02:28:51.367Z,79.90
2017-04-29T02:31:18.465Z,79.90
2017-04-29T02:33:46.513Z,79.30
2017-04-29T02:36:13.552Z,79.30
2017-04-29T02:38:40.581Z,78.80
2017-04-29T02:41:07.601Z,78.80
2017-04-29T02:43:35.361Z,79.10
2017-04-29T02:46:02.900Z,78.80
2017-04-29T02:48:29.933Z,78.00
2017-04-29T02:50:56.973Z,78.40
2017-04-29T02:53:24.008Z,78.80
2017-04-29T02:55:51.050Z,79.50
2017-04-29T02:58:18.428Z,79.40
2017-04-29T03:00:45.519Z,79.70
2017-04-29T03:03:12.612Z,79.50
2017-04-29T03:05:39.675Z,78.90
2017-04-29T03:08:06.689Z,78.80
2017-04-29T03:10:34.076Z,78.80
2017-04-29T03:13:01.148Z,78.80
2017-04-29T03:15:28.955Z,78.70
2017-04-29T03:17:55.989Z,78.70
2017-04-29T03:20:23.017Z,79.10
2017-04-29T03:22:51.171Z,78.50
2017-04-29T03:25:18.192Z,78.70
2017-04-29T03:27:45.206Z,78.40
2017-04-29T03:30:12.232Z,78.60
2017-04-29T03:32:39.999Z,78.30
2017-04-29T03:35:07.441Z,78.10
2017-04-29T03:37:34.468Z,78.40
2017-04-29T03:40:01.587Z,78.60
2017-04-29T03:42:28.664Z,78.40
2017-04-29T03:44:55.698Z,78.20
2017-04-29T03:47:23.099Z,77.90
2017-04-29T03:49:50.096Z,77.90
2017-04-29T03:52:17.108Z,78.80
2017-04-29T03:54:44.161Z,78.80
2017-04-29T03:57:11.210Z,78.60
2017-04-29T03:59:38.634Z,79.60
2017-04-29T04:02:05.673Z,78.00
2017-04-29T04:04:32.721Z,77.50
2017-04-29T04:06:59.796Z,77.00
2017-04-29T04:09:26.869Z,77.20
2017-04-29T04:11:54.236Z,78.00
2017-04-29T04:14:21.259Z,78.00
2017-04-29T04:16:49.020Z,77.90
2017-04-29T04:19:16.872Z,78.10
2017-04-29T04:21:43.995Z,78.60
2017-04-29T04:24:11.475Z,78.10
2017-04-29T04:26:39.269Z,77.90
2017-04-29T04:29:06.304Z,77.40
2017-04-29T04:31:40.221Z,77.00
2017-04-29T04:34:07.276Z,76.40
2017-04-29T04:36:34.709Z,76.50
2017-04-29T04:39:02.464Z,76.60
2017-04-29T04:41:29.513Z,76.30
2017-04-29T04:43:56.857Z,75.90
2017-04-29T04:46:23.936Z,76.10
2017-04-29T04:48:50.991Z,75.90
2017-04-29T04:51:18.802Z,75.80
2017-04-29T04:53:45.829Z,75.70
2017-04-29T04:56:12.913Z,76.80
2017-04-29T04:58:39.975Z,77.10
2017-04-29T05:01:07.443Z,77.40
2017-04-29T05:03:34.539Z,78.20
2017-04-29T05:06:01.600Z,78.00
2017-04-29T05:08:28.663Z,77.40
2017-04-29T05:10:55.722Z,77.70
2017-04-29T05:13:23.529Z,77.40
2017-04-29T05:15:50.541Z,77.50
2017-04-29T05:18:18.720Z,77.20
2017-04-29T05:20:46.480Z,77.70
2017-04-29T05:23:14.286Z,78.60
2017-04-29T05:25:41.326Z,78.40
2017-04-29T05:28:08.413Z,78.00
2017-04-29T05:30:35.467Z,77.90
2017-04-29T05:33:02.505Z,78.10
2017-04-29T05:35:29.852Z,78.20
2017-04-29T05:37:56.939Z,77.90
2017-04-29T05:40:24.744Z,78.40
2017-04-29T05:42:51.787Z,78.90
2017-04-29T05:45:18.828Z,78.90
2017-04-29T05:47:45.861Z,78.90
2017-04-29T05:50:12.923Z,79.30
2017-04-29T05:52:39.948Z,79.10
2017-04-29T05:55:07.035Z,78.70
2017-04-29T05:57:41.169Z,79.80
2017-04-29T06:00:08.228Z,78.80
2017-04-29T06:02:35.268Z,78.40
2017-04-29T06:05:02.302Z,78.30
2017-04-29T06:07:29.346Z,77.90
2017-04-29T06:09:57.174Z,78.90
2017-04-29T06:12:25.239Z,78.40
2017-04-29T06:14:52.330Z,78.70
2017-04-29T06:17:19.387Z,78.30
2017-04-29T06:19:46.419Z,78.40
2017-04-29T06:22:13.437Z,79.20
2017-04-29T06:24:40.571Z,78.10
2017-04-29T06:27:08.368Z,78.90
2017-04-29T06:29:35.794Z,75.90
2017-04-29T06:32:02.837Z,77.20
2017-04-29T06:34:30.617Z,77.20
2017-04-29T06:36:57.713Z,77.80
2017-04-29T06:39:24.823Z,77.20
2017-04-29T06:41:51.903Z,78.40
2017-04-29T06:44:18.979Z,76.60
2017-04-29T06:46:46.343Z,77.20
2017-04-29T06:49:13.377Z,76.30
2017-04-29T06:51:40.400Z,76.80
2017-04-29T06:54:07.452Z,77.10
2017-04-29T06:56:34.484Z,76.60
2017-04-29T06:59:01.520Z,75.90
2017-04-29T07:01:28.580Z,76.10
2017-04-29T07:03:56.100Z,76.10
2017-04-29T07:06:23.201Z,76.40
2017-04-29T07:08:50.278Z,73.70
2017-04-29T07:11:17.338Z,75.00
2017-04-29T07:13:45.221Z,74.40
2017-04-29T07:16:13.016Z,74.70
2017-04-29T07:18:40.048Z,74.60
2017-04-29T07:21:08.096Z,73.40
2017-04-29T07:23:35.188Z,73.40
2017-04-29T07:26:02.265Z,74.20
2017-04-29T07:28:29.399Z,74.40
2017-04-29T07:30:56.428Z,73.80
2017-04-29T07:33:23.499Z,70.50
2017-04-29T07:35:50.550Z,71.60
2017-04-29T07:38:17.913Z,71.90
2017-04-29T07:40:44.975Z,71.50
2017-04-29T07:43:12.017Z,71.90
2017-04-29T07:45:39.290Z,70.20
2017-04-29T07:48:07.129Z,70.20
2017-04-29T07:50:34.241Z,68.90
2017-04-29T07:53:01.309Z,68.10
2017-04-29T07:55:28.720Z,67.00
2017-04-29T07:57:56.524Z,67.40
2017-04-29T08:00:23.581Z,67.20
2017-04-29T08:02:50.778Z,66.40
2017-04-29T08:05:18.567Z,65.20
2017-04-29T08:07:45.974Z,65.20
2017-04-29T08:10:13.065Z,63.90
2017-04-29T08:12:40.125Z,64.90
2017-04-29T08:15:07.209Z,66.30
2017-04-29T08:17:34.257Z,64.20
2017-04-29T08:20:01.296Z,62.80
2017-04-29T08:22:28.341Z,63.90
2017-04-29T08:24:55.382Z,64.80
2017-04-29T08:27:22.432Z,63.90
2017-04-29T08:29:49.835Z,63.10
2017-04-29T08:32:17.637Z,62.50
2017-04-29T08:34:44.683Z,63.30
2017-04-29T08:37:11.776Z,64.00
2017-04-29T08:39:39.765Z,60.00
2017-04-29T08:42:06.788Z,59.80
2017-04-29T08:44:33.841Z,60.50
2017-04-29T08:47:01.224Z,61.00
2017-04-29T08:49:29.084Z,60.50
2017-04-29T08:51:56.948Z,59.80
2017-04-29T08:54:23.979Z,59.20
2017-04-29T08:56:51.038Z,59.10
2017-04-29T08:59:18.125Z,59.80
2017-04-29T09:01:45.131Z,59.40
2017-04-29T09:04:12.493Z,59.30
2017-04-29T09:06:40.296Z,59.10
2017-04-29T09:09:07.336Z,59.20
2017-04-29T09:11:34.392Z,59.90
2017-04-29T09:14:01.401Z,60.30
2017-04-29T09:16:28.928Z,58.60
2017-04-29T09:18:55.984Z,58.50
2017-04-29T09:21:23.051Z,59.10
2017-04-29T09:23:50.130Z,59.00
2017-04-29T09:26:17.186Z,60.00
2017-04-29T09:28:44.250Z,61.10
2017-04-29T09:31:11.329Z,58.70
2017-04-29T09:33:38.719Z,59.80
2017-04-29T09:36:06.475Z,57.50
2017-04-29T09:38:33.538Z,56.30
2017-04-29T09:41:01.403Z,56.10
2017-04-29T09:43:28.494Z,56.10
2017-04-29T09:45:56.191Z,55.80
2017-04-29T09:48:23.998Z,55.10
2017-04-29T09:50:51.396Z,55.60
2017-04-29T09:53:18.465Z,57.30
2017-04-29T09:55:45.499Z,57.20
2017-04-29T09:58:12.565Z,56.90
2017-04-29T10:00:39.601Z,56.20
2017-04-29T10:03:06.657Z,55.50
2017-04-29T10:05:34.524Z,57.20
2017-04-29T10:08:02.902Z,56.80
2017-04-29T10:10:29.925Z,56.10
2017-04-29T10:12:57.003Z,56.70
2017-04-29T10:15:24.122Z,55.00
2017-04-29T10:17:51.201Z,54.30
2017-04-29T10:20:18.340Z,55.40
2017-04-29T10:22:45.440Z,55.20
2017-04-29T10:25:12.865Z,55.90
2017-04-29T10:27:39.937Z,55.30
2017-04-29T10:30:07.355Z,55.70
2017-04-29T10:32:34.507Z,56.10
2017-04-29T10:35:02.308Z,53.80
2017-04-29T10:37:29.383Z,53.90
2017-04-29T10:39:56.408Z,52.80
2017-04-29T10:42:23.812Z,52.50
2017-04-29T10:44:50.845Z,50.70
2017-04-29T10:47:17.873Z,51.70
2017-04-29T10:49:44.946Z,52.90
2017-04-29T10:52:11.985Z,53.20
2017-04-29T10:54:39.070Z,53.20
2017-04-29T10:57:06.091Z,54.60
2017-04-29T10:59:33.544Z,52.50
2017-04-29T11:02:00.592Z,54.00
2017-04-29T11:04:28.009Z,55.70
2017-04-29T11:06:55.090Z,53.50
2017-04-29T11:09:22.166Z,53.70
2017-04-29T11:11:50.221Z,54.00
2017-04-29T11:14:17.270Z,54.20
2017-04-29T11:16:44.571Z,54.60
2017-04-29T11:19:11.646Z,53.10
2017-04-29T11:21:38.705Z,54.40
2017-04-29T11:24:06.094Z,53.90
2017-04-29T11:26:33.942Z,53.40
2017-04-29T11:29:00.971Z,53.70
2017-04-29T11:31:28.049Z,54.40
2017-04-29T11:33:55.108Z,55.60
2017-04-29T11:36:22.163Z,57.50
2017-04-29T11:38:49.196Z,56.70
2017-04-29T11:41:16.625Z,54.90
2017-04-29T11:43:43.649Z,55.80
2017-04-29T11:46:10.702Z,57.00
2017-04-29T11:48:38.637Z,57.40
2017-04-29T11:51:05.841Z,55.80
2017-04-29T11:53:33.020Z,57.30
2017-04-29T11:56:00.131Z,57.70
2017-04-29T11:58:27.229Z,57.50
2017-04-29T12:00:54.285Z,56.90
2017-04-29T12:03:21.345Z,56.60
2017-04-29T12:05:48.393Z,54.80
2017-04-29T12:08:15.415Z,53.20
2017-04-29T12:10:42.810Z,53.10
2017-04-29T12:13:09.861Z,54.10
2017-04-29T12:15:36.995Z,52.10
2017-04-29T12:18:04.267Z,51.80
2017-04-29T12:20:31.316Z,50.40
2017-04-29T12:22:59.145Z,51.60
2017-04-29T12:25:26.157Z,52.80
2017-04-29T12:27:53.590Z,52.20
2017-04-29T12:30:21.392Z,52.60
2017-04-29T12:32:48.942Z,48.00
2017-04-29T12:35:16.000Z,48.20
2017-04-29T12:37:43.049Z,49.40
2017-04-29T12:40:10.085Z,46.20
2017-04-29T12:42:37.165Z,46.40
2017-04-29T12:45:06.219Z,46.50
2017-04-29T12:47:33.273Z,45.50
2017-04-29T12:50:00.316Z,46.20
2017-04-29T12:52:27.365Z,47.90
2017-04-29T12:54:54.409Z,48.40
2017-04-29T12:57:21.476Z,51.30
2017-04-29T12:59:48.487Z,55.90
2017-04-29T13:02:15.913Z,57.60
2017-04-29T13:04:42.940Z,57.40
2017-04-29T13:07:09.964Z,57.00
2017-04-29T13:09:37.028Z,57.20
2017-04-29T13:12:04.093Z,57.90
2017-04-29T13:14:31.924Z,58.80
2017-04-29T13:16:58.981Z,59.30
2017-04-29T13:19:26.388Z,58.90
2017-04-29T13:21:53.441Z,58.10
2017-04-29T13:24:21.194Z,59.90
2017-04-29T13:26:48.257Z,60.10
2017-04-29T13:29:15.352Z,61.10
2017-04-29T13:31:43.190Z,61.60
2017-04-29T13:34:10.239Z,60.90
2017-04-29T13:36:40.124Z,60.60
2017-04-29T13:39:07.174Z,62.10
2017-04-29T13:41:34.956Z,63.80
2017-04-29T13:44:02.049Z,63.80
2017-04-29T13:46:29.129Z,64.40
2017-04-29T13:48:56.256Z,62.90
2017-04-29T13:51:23.332Z,61.40
2017-04-29T13:53:50.775Z,59.90
2017-04-29T13:56:18.566Z,56.50
2017-04-29T13:58:45.585Z,55.60
2017-04-29T14:01:12.651Z,54.00
2017-04-29T14:03:40.426Z,52.20
2017-04-29T14:06:07.494Z,51.90
2017-04-29T14:08:34.584Z,53.40
2017-04-29T14:11:01.952Z,53.10
2017-04-29T14:13:28.996Z,50.50
2017-04-29T14:15:56.051Z,49.00
2017-04-29T14:18:23.127Z,47.80
2017-04-29T14:20:50.191Z,43.80
2017-04-29T14:23:17.608Z,42.60
2017-04-29T14:25:45.363Z,42.40
2017-04-29T14:28:13.741Z,42.20
2017-04-29T14:30:40.798Z,39.00
2017-04-29T14:33:07.875Z,40.00
2017-04-29T14:35:34.938Z,40.10
2017-04-29T14:38:01.980Z,39.00
2017-04-29T14:40:29.399Z,39.20
2017-04-29T14:42:56.414Z,39.80
2017-04-29T14:45:24.280Z,38.80
2017-04-29T14:47:52.091Z,39.40
2017-04-29T14:50:19.461Z,38.20
2017-04-29T14:52:47.465Z,36.40
2017-04-29T14:55:14.631Z,34.60
2017-04-29T14:57:41.974Z,33.10
2017-04-29T15:00:09.034Z,32.00
2017-04-29T15:02:36.091Z,33.20
2017-04-29T15:05:03.160Z,32.80
2017-04-29T15:07:30.197Z,34.90
2017-04-29T15:09:58.078Z,37.20
2017-04-29T15:12:25.117Z,37.60
2017-04-29T15:14:52.186Z,40.30
2017-04-29T15:17:19.260Z,43.30
2017-04-29T15:19:46.292Z,45.80
2017-04-29T15:22:13.384Z,48.50
2017-04-29T15:24:40.432Z,48.30
2017-04-29T15:27:07.877Z,48.60
2017-04-29T15:29:34.916Z,46.60
2017-04-29T15:32:02.712Z,49.40
2017-04-29T15:34:29.800Z,47.70
2017-04-29T15:36:56.856Z,43.10
2017-04-29T15:39:24.682Z,38.10
2017-04-29T15:41:51.774Z,34.80
2017-04-29T15:44:18.844Z,29.60
2017-04-29T15:46:46.071Z,30.00
2017-04-29T15:49:13.885Z,33.00
2017-04-29T15:51:40.954Z,36.60
2017-04-29T15:54:08.058Z,34.60
2017-04-29T15:56:35.124Z,36.20
2017-04-29T15:59:02.183Z,39.30
2017-04-29T16:01:29.211Z,41.40
2017-04-29T16:03:56.349Z,41.80
2017-04-29T16:06:24.216Z,38.10
2017-04-29T16:08:51.302Z,35.80
2017-04-29T16:11:21.948Z,30.60
2017-04-29T16:13:58.027Z,28.80
2017-04-29T16:16:25.337Z,29.30
2017-04-29T16:18:52.391Z,28.90
2017-04-29T16:21:19.438Z,28.80
2017-04-29T16:23:46.545Z,29.40
2017-04-29T16:26:13.592Z,31.90
2017-04-29T16:28:40.663Z,33.70
2017-04-29T16:31:08.492Z,34.30
2017-04-29T16:33:35.576Z,31.30
2017-04-29T16:36:04.289Z,30.00
2017-04-29T16:38:31.515Z,29.10
2017-04-29T16:40:59.317Z,30.20
2017-04-29T16:43:26.409Z,32.90
2017-04-29T16:45:53.472Z,35.80
2017-04-29T16:48:20.818Z,37.70
2017-04-29T16:50:47.855Z,39.10
2017-04-29T16:53:14.900Z,39.90
2017-04-29T16:55:41.981Z,41.50
2017-04-29T16:58:09.071Z,42.90
2017-04-29T17:00:36.147Z,43.90
2017-04-29T17:03:03.940Z,44.00
2017-04-29T17:05:31.293Z,44.40
2017-04-29T17:07:59.094Z,44.30
2017-04-29T17:10:26.141Z,45.30
2017-04-29T17:12:53.196Z,45.00
2017-04-29T17:15:20.267Z,45.20
2017-04-29T17:17:48.092Z,45.90
2017-04-29T17:20:15.156Z,45.50
2017-04-29T17:22:42.634Z,46.10
2017-04-29T17:25:09.669Z,46.30
2017-04-29T17:27:37.461Z,46.60
2017-04-29T17:30:04.560Z,47.40
2017-04-29T17:32:31.627Z,47.20
2017-04-29T17:34:58.740Z,46.80
2017-04-29T17:37:26.126Z,47.50
2017-04-29T17:39:53.204Z,47.60
2017-04-29T17:42:20.244Z,47.90
2017-04-29T17:44:48.874Z,47.80
2017-04-29T17:47:15.935Z,48.50
2017-04-29T17:49:42.982Z,48.70
2017-04-29T17:52:10.021Z,48.80
2017-04-29T17:54:37.207Z,49.70
2017-04-29T17:57:04.263Z,50.10
2017-04-29T17:59:31.324Z,51.00
2017-04-29T18:01:58.393Z,50.30
2017-04-29T18:04:25.442Z,49.10
2017-04-29T18:06:52.506Z,48.50
2017-04-29T18:09:19.533Z,49.00
2017-04-29T18:11:46.589Z,50.20
2017-04-29T18:14:13.616Z,49.80
2017-04-29T18:16:40.719Z,49.50
2017-04-29T18:19:07.792Z,50.60
2017-04-29T18:21:35.221Z,49.80
2017-04-29T18:24:02.284Z,50.80
2017-04-29T18:26:29.305Z,50.80
2017-04-29T18:28:56.389Z,51.40
2017-04-29T18:31:23.424Z,52.40
2017-04-29T18:33:50.491Z,51.40
2017-04-29T18:36:17.578Z,52.20
2017-04-29T18:38:44.601Z,53.00
2017-04-29T18:41:11.661Z,52.60
2017-04-29T18:43:38.721Z,52.50
2017-04-29T18:46:05.774Z,52.70
2017-04-29T18:48:33.936Z,53.70
2017-04-29T18:51:00.996Z,54.10
2017-04-29T18:53:28.803Z,54.10
2017-04-29T18:55:55.855Z,54.20
2017-04-29T18:58:22.881Z,54.40
2017-04-29T19:00:51.026Z,54.60
2017-04-29T19:03:18.058Z,52.70
2017-04-29T19:05:45.095Z,54.20
2017-04-29T19:08:12.149Z,54.80
2017-04-29T19:10:39.173Z,55.20
2017-04-29T19:13:06.193Z,55.30
2017-04-29T19:15:33.240Z,55.50
2017-04-29T19:18:00.540Z,55.60
2017-04-29T19:20:27.616Z,55.70
2017-04-29T19:22:55.433Z,56.00
2017-04-29T19:25:23.304Z,57.00
2017-04-29T19:27:50.334Z,56.60
2017-04-29T19:30:17.427Z,56.50
2017-04-29T19:32:45.224Z,56.90
2017-04-29T19:35:12.771Z,56.80
2017-04-29T19:37:40.570Z,57.20
2017-04-29T19:40:07.639Z,57.60
2017-04-29T19:42:34.683Z,57.90
2017-04-29T19:45:01.812Z,58.20
2017-04-29T19:47:28.840Z,59.00
2017-04-29T19:49:56.621Z,57.60
2017-04-29T19:52:23.669Z,57.70
2017-04-29T19:54:50.753Z,57.50
2017-04-29T19:57:17.825Z,58.50
2017-04-29T19:59:44.865Z,59.10
2017-04-29T20:02:12.242Z,60.00
2017-04-29T20:04:40.021Z,59.30
2017-04-29T20:07:07.845Z,59.40
2017-04-29T20:09:34.958Z,59.50
2017-04-29T20:12:02.022Z,60.80
2017-04-29T20:14:29.076Z,62.00
2017-04-29T20:16:56.093Z,60.90
2017-04-29T20:19:23.881Z,61.50
2017-04-29T20:21:50.883Z,61.60
2017-04-29T20:24:19.008Z,60.80
2017-04-29T20:26:46.321Z,61.30
2017-04-29T20:29:13.355Z,62.80
2017-04-29T20:31:40.416Z,61.80
2017-04-29T20:34:07.490Z,62.50
2017-04-29T20:36:34.574Z,61.70
2017-04-29T20:39:01.601Z,62.10
2017-04-29T20:41:28.676Z,62.30
2017-04-29T20:43:55.738Z,62.70
2017-04-29T20:46:23.519Z,62.60
2017-04-29T20:48:50.980Z,62.60
2017-04-29T20:51:18.007Z,62.50
2017-04-29T20:53:45.024Z,61.90
2017-04-29T20:56:12.123Z,62.10
2017-04-29T20:58:39.838Z,62.00
2017-04-29T21:01:06.947Z,62.50
2017-04-29T21:03:33.981Z,61.80
2017-04-29T21:06:02.145Z,62.10
2017-04-29T21:08:29.168Z,62.10
2017-04-29T21:10:56.233Z,63.30
2017-04-29T21:13:23.315Z,62.40
2017-04-29T21:15:50.355Z,62.40
2017-04-29T21:18:17.399Z,62.10
2017-04-29T21:20:45.204Z,61.60
2017-04-29T21:23:12.624Z,61.60
2017-04-29T21:25:40.412Z,62.60
2017-04-29T21:28:07.481Z,62.40
2017-04-29T21:30:34.534Z,61.80
2017-04-29T21:33:01.597Z,62.70
2017-04-29T21:35:28.973Z,63.30
2017-04-29T21:37:56.653Z,63.00
2017-04-29T21:40:23.723Z,62.60
2017-04-29T21:42:50.792Z,62.90
2017-04-29T21:45:17.831Z,63.60
2017-04-29T21:47:44.951Z,63.70
2017-04-29T21:50:12.729Z,64.10
2017-04-29T21:52:40.135Z,64.40
2017-04-29T21:55:07.144Z,64.50
2017-04-29T21:57:34.208Z,64.00
2017-04-29T22:00:01.392Z,65.30
2017-04-29T22:02:28.456Z,64.80
2017-04-29T22:04:55.550Z,64.20
2017-04-29T22:07:22.588Z,64.10
2017-04-29T22:09:49.679Z,64.00
2017-04-29T22:12:16.724Z,64.60
2017-04-29T22:14:44.111Z,64.80
2017-04-29T22:17:11.880Z,65.30
2017-04-29T22:19:39.710Z,65.50
2017-04-29T22:22:06.768Z,65.50
2017-04-29T22:24:33.819Z,65.30
2017-04-29T22:27:00.861Z,65.80
2017-04-29T22:29:27.926Z,66.10
2017-04-29T22:31:55.260Z,66.40
2017-04-29T22:34:22.255Z,66.80
2017-04-29T22:36:50.527Z,66.90
2017-04-29T22:39:17.515Z,66.10
2017-04-29T22:41:45.428Z,65.80
2017-04-29T22:44:12.432Z,65.80
2017-04-29T22:46:39.437Z,66.00
2017-04-29T22:49:06.871Z,66.60
2017-04-29T22:51:33.925Z,67.20
2017-04-29T22:54:00.940Z,66.90
2017-04-29T22:56:28.320Z,67.40
2017-04-29T22:58:55.874Z,67.50
2017-04-29T23:01:22.884Z,68.70
2017-04-29T23:03:49.927Z,68.10
2017-04-29T23:06:17.345Z,67.80
2017-04-29T23:08:44.384Z,67.50
2017-04-29T23:11:11.339Z,67.80
2017-04-29T23:13:38.353Z,68.80
2017-04-29T23:16:05.332Z,68.10
2017-04-29T23:18:32.349Z,68.50
2017-04-29T23:20:59.361Z,68.80
2017-04-29T23:23:27.472Z,68.30
2017-04-29T23:25:54.474Z,68.70
2017-04-29T23:28:22.229Z,68.50
2017-04-29T23:30:49.247Z,67.90
2017-04-29T23:33:16.271Z,67.90
2017-04-29T23:35:43.284Z,68.10
2017-04-29T23:38:11.006Z,68.60
2017-04-29T23:40:38.364Z,68.80
2017-04-29T23:43:05.373Z,69.00
2017-04-29T23:45:32.372Z,69.40
2017-04-29T23:47:59.380Z,70.30
2017-04-29T23:50:26.377Z,70.00
2017-04-29T23:52:53.645Z,69.90
2017-04-29T23:55:21.400Z,70.40
2017-04-29T23:57:49.107Z,71.10
